createdAt,value
2024-02-23T00:01:41.243Z,99146.53
2024-02-23T00:04:43.185Z,99146.03
2024-02-23T00:07:44.894Z,99145.81
2024-02-23T00:10:47.477Z,99148.94
2024-02-23T00:13:49.273Z,99147.88
2024-02-23T00:16:50.963Z,99154.97
2024-02-23T00:19:54.079Z,99162.28
2024-02-23T00:22:55.778Z,99163.47
2024-02-23T00:25:57.378Z,99162.81
2024-02-23T00:28:59.259Z,99170.38
2024-02-23T00:32:00.917Z,99171.72
2024-02-23T00:35:02.560Z,99162.53
2024-02-23T00:38:04.327Z,99167.28
2024-02-23T00:41:06.141Z,99164.97
2024-02-23T00:44:07.950Z,99159.53
2024-02-23T00:47:10.826Z,99159.19
2024-02-23T00:50:13.038Z,99146.50
2024-02-23T00:53:14.843Z,99144.84
2024-02-23T00:56:16.532Z,99146.50
2024-02-23T00:59:18.233Z,99141.88
2024-02-23T01:02:19.992Z,99130.78
2024-02-23T01:05:21.703Z,99134.63
2024-02-23T01:08:23.332Z,99137.75
2024-02-23T01:11:25.088Z,99136.59
2024-02-23T01:14:26.763Z,99131.19
2024-02-23T01:17:28.592Z,99136.16
2024-02-23T01:20:30.442Z,99138.16
2024-02-23T01:23:32.118Z,99134.00
2024-02-23T01:26:33.762Z,99130.75
2024-02-23T01:29:35.483Z,99122.34
2024-02-23T01:32:39.645Z,99122.81
2024-02-23T01:35:41.622Z,99105.38
2024-02-23T01:38:44.114Z,99104.91
2024-02-23T01:41:45.803Z,99100.44
2024-02-23T01:44:47.413Z,99098.63
2024-02-23T01:47:49.076Z,99097.81
2024-02-23T01:50:50.969Z,99090.91
2024-02-23T01:53:53.032Z,99097.63
2024-02-23T01:56:56.780Z,99089.41
2024-02-23T01:59:58.521Z,99092.88
2024-02-23T02:03:00.103Z,99090.88
2024-02-23T02:06:01.932Z,99079.03
2024-02-23T02:09:03.688Z,99079.72
2024-02-23T02:12:05.693Z,99075.25
2024-02-23T02:15:07.933Z,99079.00
2024-02-23T02:18:09.530Z,99067.31
2024-02-23T02:21:11.119Z,99081.09
2024-02-23T02:24:15.207Z,99081.56
2024-02-23T02:27:17.129Z,99088.19
2024-02-23T02:30:18.905Z,99069.53
2024-02-23T02:33:21.207Z,99075.94
2024-02-23T02:36:22.894Z,99079.06
2024-02-23T02:39:24.500Z,99064.91
2024-02-23T02:42:26.210Z,99066.19
2024-02-23T02:45:27.928Z,99070.31
2024-02-23T02:48:29.557Z,99069.50
2024-02-23T02:51:31.246Z,99082.97
2024-02-23T02:54:33.144Z,99080.00
2024-02-23T02:57:34.964Z,99078.16
2024-02-23T03:00:36.684Z,99064.03
2024-02-23T03:03:38.348Z,99087.06
2024-02-23T03:06:40.224Z,99080.63
2024-02-23T03:09:41.888Z,99099.59
2024-02-23T03:12:43.984Z,99066.69
2024-02-23T03:15:45.841Z,99080.88
2024-02-23T03:18:48.002Z,99098.69
2024-02-23T03:21:49.616Z,99099.00
2024-02-23T03:24:51.262Z,99084.84
2024-02-23T03:27:52.886Z,99074.63
2024-02-23T03:30:54.512Z,99081.91
2024-02-23T03:33:56.296Z,99088.47
2024-02-23T03:36:59.428Z,99088.47
2024-02-23T03:40:02.204Z,99082.63
2024-02-23T03:43:05.276Z,99092.19
2024-02-23T03:46:07.641Z,99076.47
2024-02-23T03:49:09.710Z,99085.00
2024-02-23T03:52:11.375Z,99100.22
2024-02-23T03:55:13.016Z,99080.06
2024-02-23T03:58:14.672Z,99091.34
2024-02-23T04:01:16.303Z,99096.81
2024-02-23T04:04:18.898Z,99099.59
2024-02-23T04:07:20.845Z,99095.44
2024-02-23T04:10:22.437Z,99100.25
2024-02-23T04:13:24.282Z,99110.28
2024-02-23T04:16:26.224Z,99092.53
2024-02-23T04:19:27.932Z,99105.88
2024-02-23T04:22:29.525Z,99100.09
2024-02-23T04:25:31.131Z,99100.25
2024-02-23T04:28:34.738Z,99105.25
2024-02-23T04:31:38.954Z,99109.47
2024-02-23T04:34:41.567Z,99103.56
2024-02-23T04:37:46.524Z,99107.00
2024-02-23T04:40:48.210Z,99119.31
2024-02-23T04:43:50.606Z,99101.25
2024-02-23T04:46:52.315Z,99118.69
2024-02-23T04:49:54.039Z,99119.19
2024-02-23T04:52:55.709Z,99124.34
2024-02-23T04:55:57.347Z,99111.88
2024-02-23T04:58:59.068Z,99120.66
2024-02-23T05:02:00.741Z,99120.31
2024-02-23T05:05:05.700Z,99116.91
2024-02-23T05:08:07.549Z,99117.56
2024-02-23T05:11:09.398Z,99122.88
2024-02-23T05:14:11.139Z,99114.69
2024-02-23T05:17:12.774Z,99124.09
2024-02-23T05:20:15.507Z,99124.59
2024-02-23T05:23:17.841Z,99125.75
2024-02-23T05:26:19.483Z,99143.06
2024-02-23T05:29:23.560Z,99156.06
2024-02-23T05:32:25.597Z,99155.56
2024-02-23T05:35:27.878Z,99160.84
2024-02-23T05:38:32.441Z,99162.84
2024-02-23T05:41:34.807Z,99155.59
2024-02-23T05:44:36.521Z,99172.72
2024-02-23T05:47:45.044Z,99170.59
2024-02-23T05:50:48.830Z,99173.06
2024-02-23T05:53:50.973Z,99173.03
2024-02-23T05:56:52.815Z,99191.69
2024-02-23T05:59:54.977Z,99194.31
2024-02-23T06:02:56.618Z,99199.56
2024-02-23T06:05:58.389Z,99192.47
2024-02-23T06:09:01.192Z,99200.06
2024-02-23T06:12:02.965Z,99201.38
2024-02-23T06:15:04.968Z,99200.56
2024-02-23T06:18:06.870Z,99203.69
2024-02-23T06:21:15.766Z,99206.66
2024-02-23T06:24:17.980Z,99219.69
2024-02-23T06:27:19.578Z,99219.84
2024-02-23T06:30:21.988Z,99225.63
2024-02-23T06:33:23.687Z,99223.47
2024-02-23T06:36:25.337Z,99214.56
2024-02-23T06:39:27.384Z,99221.81
2024-02-23T06:42:28.994Z,99231.38
2024-02-23T06:45:30.596Z,99234.97
2024-02-23T06:48:33.599Z,99225.59
2024-02-23T06:51:35.240Z,99238.13
2024-02-23T06:54:37.119Z,99245.88
2024-02-23T06:57:39.250Z,99235.97
2024-02-23T07:00:40.887Z,99240.09
2024-02-23T07:03:44.734Z,99234.81
2024-02-23T07:06:46.494Z,99246.19
2024-02-23T07:09:48.341Z,99243.22
2024-02-23T07:12:49.913Z,99251.13
2024-02-23T07:15:51.538Z,99244.69
2024-02-23T07:18:53.212Z,99247.53
2024-02-23T07:21:54.792Z,99247.19
2024-02-23T07:24:56.419Z,99251.81
2024-02-23T07:27:58.082Z,99257.41
2024-02-23T07:30:59.684Z,99242.56
2024-02-23T07:34:01.568Z,99243.56
2024-02-23T07:37:03.957Z,99258.22
2024-02-23T07:40:06.232Z,99263.13
2024-02-23T07:43:07.800Z,99276.16
2024-02-23T07:46:10.100Z,99282.56
2024-02-23T07:49:11.943Z,99282.22
2024-02-23T07:52:13.776Z,99282.41
2024-02-23T07:55:17.420Z,99271.53
2024-02-23T07:58:20.216Z,99274.50
2024-02-23T08:01:21.897Z,99261.66
2024-02-23T08:04:23.612Z,99273.66
2024-02-23T08:07:26.803Z,99277.28
2024-02-23T08:10:28.492Z,99292.59
2024-02-23T08:13:30.126Z,99280.41
2024-02-23T08:16:31.820Z,99288.34
2024-02-23T08:19:33.393Z,99274.13
2024-02-23T08:22:35.008Z,99279.88
2024-02-23T08:25:37.660Z,99288.63
2024-02-23T08:28:39.354Z,99287.94
2024-02-23T08:31:42.689Z,99287.78
2024-02-23T08:34:44.614Z,99295.97
2024-02-23T08:37:46.335Z,99300.44
2024-02-23T08:40:47.966Z,99306.34
2024-02-23T08:43:51.023Z,99307.31
2024-02-23T08:46:52.748Z,99297.31
2024-02-23T08:49:54.530Z,99299.91
2024-02-23T08:52:56.430Z,99294.13
2024-02-23T08:55:58.836Z,99308.28
2024-02-23T08:59:00.581Z,99310.22
2024-02-23T09:02:02.219Z,99314.53
2024-02-23T09:05:04.148Z,99316.31
2024-02-23T09:08:06.844Z,99310.34
2024-02-23T09:11:08.553Z,99331.31
2024-02-23T09:14:10.198Z,99328.13
2024-02-23T09:17:12.541Z,99321.22
2024-02-23T09:20:14.413Z,99333.72
2024-02-23T09:23:16.167Z,99328.44
2024-02-23T09:26:19.193Z,99329.72
2024-02-23T09:29:21.014Z,99322.47
2024-02-23T09:32:22.743Z,99323.25
2024-02-23T09:35:24.431Z,99330.97
2024-02-23T09:38:26.645Z,99332.00
2024-02-23T09:41:28.461Z,99342.72
2024-02-23T09:44:35.660Z,99335.66
2024-02-23T09:47:37.599Z,99327.13
2024-02-23T09:50:41.992Z,99322.69
2024-02-23T09:53:43.765Z,99339.81
2024-02-23T09:56:45.904Z,99330.13
2024-02-23T09:59:50.327Z,99342.47
2024-02-23T10:02:53.289Z,99344.75
2024-02-23T10:05:55.197Z,99342.41
2024-02-23T10:08:57.154Z,99347.31
2024-02-23T10:11:58.975Z,99345.63
2024-02-23T10:15:00.751Z,99330.97
2024-02-23T10:18:02.353Z,99331.47
2024-02-23T10:21:04.256Z,99335.72
2024-02-23T10:24:08.983Z,99339.00
2024-02-23T10:27:12.071Z,99344.59
2024-02-23T10:30:16.174Z,99349.72
2024-02-23T10:33:22.519Z,99355.34
2024-02-23T10:36:30.403Z,99355.25
2024-02-23T10:39:32.577Z,99349.13
2024-02-23T10:42:36.631Z,99337.47
2024-02-23T10:45:41.108Z,99345.88
2024-02-23T10:48:45.683Z,99343.22
2024-02-23T10:51:49.745Z,99341.63
2024-02-23T10:54:53.045Z,99339.13
2024-02-23T10:57:57.322Z,99345.56
2024-02-23T11:01:05.527Z,99340.81
2024-02-23T11:04:09.082Z,99346.78
2024-02-23T11:07:15.224Z,99352.25
2024-02-23T11:10:17.407Z,99325.69
2024-02-23T11:13:19.614Z,99340.97
2024-02-23T11:16:24.783Z,99341.69
2024-02-23T11:19:38.216Z,99327.28
2024-02-23T11:22:40.250Z,99325.00
2024-02-23T11:25:42.231Z,99327.00
2024-02-23T11:28:56.707Z,99332.69
2024-02-23T11:32:02.763Z,99335.19
2024-02-23T11:35:04.835Z,99327.13
2024-02-23T11:38:07.993Z,99338.13
2024-02-23T11:41:10.135Z,99328.88
2024-02-23T11:44:14.662Z,99331.03
2024-02-23T11:47:18.158Z,99321.75
2024-02-23T11:50:22.011Z,99321.25
2024-02-23T11:53:25.878Z,99327.00
2024-02-23T11:56:28.032Z,99322.72
2024-02-23T11:59:29.688Z,99320.19
2024-02-23T12:02:31.402Z,99319.53
2024-02-23T12:05:33.041Z,99310.84
2024-02-23T12:08:40.755Z,99313.78
2024-02-23T12:11:43.071Z,99313.72
2024-02-23T12:14:46.148Z,99313.72
2024-02-23T12:17:51.851Z,99309.44
2024-02-23T12:20:54.207Z,99303.41
2024-02-23T12:23:55.872Z,99308.59
2024-02-23T12:26:57.773Z,99293.34
2024-02-23T12:30:00.623Z,99306.84
2024-02-23T12:33:12.473Z,99292.81
2024-02-23T12:36:14.504Z,99305.44
2024-02-23T12:39:16.092Z,99299.91
2024-02-23T12:42:19.246Z,99298.25
2024-02-23T12:45:20.863Z,99304.03
2024-02-23T12:48:23.210Z,99289.72
2024-02-23T12:51:27.836Z,99301.38
2024-02-23T12:54:29.451Z,99300.22
2024-02-23T12:57:31.006Z,99292.09
2024-02-23T13:00:32.879Z,99286.81
2024-02-23T13:03:36.165Z,99292.91
2024-02-23T13:06:41.446Z,99290.38
2024-02-23T13:09:43.435Z,99298.31
2024-02-23T13:12:45.040Z,99302.91
2024-02-23T13:15:48.068Z,99301.84
2024-02-23T13:18:49.773Z,99306.25
2024-02-23T13:21:51.499Z,99301.97
2024-02-23T13:24:53.128Z,99302.44
2024-02-23T13:27:54.730Z,99288.56
2024-02-23T13:30:56.346Z,99306.22
2024-02-23T13:34:00.179Z,99309.38
2024-02-23T13:37:01.844Z,99300.16
2024-02-23T13:40:04.782Z,99296.69
2024-02-23T13:43:06.382Z,99293.00
2024-02-23T13:46:08.473Z,99285.22
2024-02-23T13:49:10.934Z,99285.34
2024-02-23T13:52:12.906Z,99281.56
2024-02-23T13:55:15.489Z,99285.88
2024-02-23T13:58:18.575Z,99273.47
2024-02-23T14:01:20.489Z,99280.94
2024-02-23T14:04:22.331Z,99278.09
2024-02-23T14:07:23.921Z,99280.25
2024-02-23T14:10:25.580Z,99267.41
2024-02-23T14:13:27.867Z,99272.53
2024-02-23T14:16:29.910Z,99282.47
2024-02-23T14:19:31.624Z,99264.97
2024-02-23T14:22:33.380Z,99266.56
2024-02-23T14:25:34.973Z,99262.09
2024-02-23T14:28:36.612Z,99270.00
2024-02-23T14:31:38.308Z,99262.53
2024-02-23T14:34:39.954Z,99260.97
2024-02-23T14:37:41.586Z,99259.94
2024-02-23T14:40:43.899Z,99257.16
2024-02-23T14:43:45.537Z,99254.16
2024-02-23T14:46:47.072Z,99236.00
2024-02-23T14:49:48.823Z,99233.81
2024-02-23T14:52:50.816Z,99252.97
2024-02-23T14:55:53.814Z,99235.66
2024-02-23T14:58:55.456Z,99235.44
2024-02-23T15:01:57.151Z,99227.88
2024-02-23T15:04:59.010Z,99241.09
2024-02-23T15:08:00.699Z,99242.63
2024-02-23T15:11:02.573Z,99237.91
2024-02-23T15:14:04.258Z,99243.03
2024-02-23T15:17:05.935Z,99240.41
2024-02-23T15:20:09.793Z,99238.72
2024-02-23T15:23:11.634Z,99226.56
2024-02-23T15:26:13.612Z,99236.31
2024-02-23T15:29:15.347Z,99235.66
2024-02-23T15:32:18.530Z,99228.94
2024-02-23T15:35:20.303Z,99222.53
2024-02-23T15:38:22.094Z,99226.22
2024-02-23T15:41:23.771Z,99230.34
2024-02-23T15:44:25.465Z,99224.25
2024-02-23T15:47:27.219Z,99224.91
2024-02-23T15:50:43.573Z,99224.91
2024-02-23T15:53:51.389Z,99223.53
2024-02-23T15:56:53.064Z,99226.06
2024-02-23T16:00:02.615Z,99220.81
2024-02-23T16:03:06.240Z,99221.06
2024-02-23T16:06:08.100Z,99218.63
2024-02-23T16:09:10.242Z,99214.06
2024-02-23T16:12:12.126Z,99213.56
2024-02-23T16:15:13.871Z,99210.50
2024-02-23T16:18:15.622Z,99212.31
2024-02-23T16:21:17.569Z,99214.34
2024-02-23T16:24:19.319Z,99223.25
2024-02-23T16:27:20.987Z,99217.19
2024-02-23T16:30:22.577Z,99221.66
2024-02-23T16:33:24.193Z,99225.94
2024-02-23T16:36:25.833Z,99228.91
2024-02-23T16:39:27.466Z,99225.78
2024-02-23T16:42:29.193Z,99225.28
2024-02-23T16:45:31.023Z,99218.69
2024-02-23T16:48:32.670Z,99213.56
2024-02-23T16:51:34.409Z,99211.28
2024-02-23T16:54:36.112Z,99209.94
2024-02-23T16:57:37.883Z,99215.06
2024-02-23T17:00:39.616Z,99214.56
2024-02-23T17:03:41.431Z,99216.56
2024-02-23T17:06:43.288Z,99217.22
2024-02-23T17:09:47.520Z,99224.31
2024-02-23T17:12:50.099Z,99219.84
2024-02-23T17:15:51.736Z,99231.59
2024-02-23T17:18:53.294Z,99231.75
2024-02-23T17:21:54.922Z,99223.34
2024-02-23T17:24:57.089Z,99223.69
2024-02-23T17:27:58.672Z,99211.00
2024-02-23T17:31:00.354Z,99219.06
2024-02-23T17:34:01.979Z,99210.50
2024-02-23T17:37:03.748Z,99206.56
2024-02-23T17:40:05.852Z,99220.59
2024-02-23T17:43:07.468Z,99211.88
2024-02-23T17:46:09.230Z,99211.53
2024-02-23T17:49:11.353Z,99205.09
2024-02-23T17:52:12.950Z,99195.69
2024-02-23T17:55:14.634Z,99196.19
2024-02-23T17:58:20.367Z,99194.53
2024-02-23T18:01:22.820Z,99184.81
2024-02-23T18:04:24.699Z,99181.84
2024-02-23T18:07:26.371Z,99168.34
2024-02-23T18:10:27.950Z,99171.16
2024-02-23T18:13:29.667Z,99161.94
2024-02-23T18:16:32.144Z,99170.66
2024-02-23T18:19:34.398Z,99166.56
2024-02-23T18:22:36.067Z,99159.31
2024-02-23T18:25:37.810Z,99154.19
2024-02-23T18:28:39.375Z,99147.47
2024-02-23T18:31:40.984Z,99146.13
2024-02-23T18:34:42.597Z,99126.53
2024-02-23T18:37:46.368Z,99132.31
2024-02-23T18:40:48.977Z,99125.38
2024-02-23T18:43:50.824Z,99124.09
2024-02-23T18:46:52.450Z,99120.97
2024-02-23T18:49:54.052Z,99132.94
2024-02-23T18:52:55.774Z,99134.91
2024-02-23T18:55:57.641Z,99133.75
2024-02-23T18:58:59.292Z,99133.13
2024-02-23T19:02:01.116Z,99133.41
2024-02-23T19:05:03.189Z,99130.75
2024-02-23T19:08:05.412Z,99128.13
2024-02-23T19:11:07.329Z,99129.75
2024-02-23T19:14:09.200Z,99114.22
2024-02-23T19:17:11.593Z,99112.63
2024-02-23T19:20:13.330Z,99114.81
2024-02-23T19:23:15.023Z,99117.03
2024-02-23T19:26:16.738Z,99117.50
2024-02-23T19:29:18.384Z,99109.66
2024-02-23T19:32:20.131Z,99123.06
2024-02-23T19:35:21.788Z,99117.88
2024-02-23T19:38:23.497Z,99119.81
2024-02-23T19:41:26.739Z,99103.97
2024-02-23T19:44:30.374Z,99109.31
2024-02-23T19:47:33.008Z,99107.53
2024-02-23T19:50:34.713Z,99107.13
2024-02-23T19:53:36.920Z,99121.94
2024-02-23T19:56:38.639Z,99113.44
2024-02-23T19:59:41.268Z,99126.94
2024-02-23T20:02:43.073Z,99108.84
2024-02-23T20:05:44.699Z,99115.06
2024-02-23T20:08:46.322Z,99123.28
2024-02-23T20:11:49.497Z,99095.81
2024-02-23T20:14:51.351Z,99109.31
2024-02-23T20:17:54.369Z,99122.69
2024-02-23T20:20:56.301Z,99114.97
2024-02-23T20:23:57.884Z,99115.47
2024-02-23T20:27:01.395Z,99110.28
2024-02-23T20:30:06.808Z,99109.44
2024-02-23T20:33:09.926Z,99105.00
2024-02-23T20:36:11.572Z,99111.75
2024-02-23T20:39:14.758Z,99110.53
2024-02-23T20:42:16.415Z,99111.75
2024-02-23T20:45:18.440Z,99119.34
2024-02-23T20:48:20.101Z,99124.81
2024-02-23T20:51:24.875Z,99121.34
2024-02-23T20:54:26.555Z,99117.22
2024-02-23T20:57:28.177Z,99132.03
2024-02-23T21:00:30.051Z,99128.50
2024-02-23T21:03:31.662Z,99127.16
2024-02-23T21:06:34.200Z,99117.06
2024-02-23T21:09:35.792Z,99132.56
2024-02-23T21:12:38.619Z,99128.50
2024-02-23T21:15:40.232Z,99116.69
2024-02-23T21:18:42.002Z,99129.84
2024-02-23T21:21:44.115Z,99135.13
2024-02-23T21:24:48.274Z,99139.06
2024-02-23T21:27:49.950Z,99140.53
2024-02-23T21:30:54.829Z,99148.41
2024-02-23T21:33:58.082Z,99140.78
2024-02-23T21:37:00.447Z,99143.47
2024-02-23T21:40:02.179Z,99146.28
2024-02-23T21:43:05.096Z,99139.00
2024-02-23T21:46:12.970Z,99130.16
2024-02-23T21:49:14.665Z,99140.06
2024-02-23T21:52:16.329Z,99136.91
2024-02-23T21:55:22.509Z,99131.63
2024-02-23T21:58:24.178Z,99131.38
2024-02-23T22:01:25.857Z,99142.03
2024-02-23T22:04:27.579Z,99147.47
2024-02-23T22:07:29.337Z,99145.94
2024-02-23T22:10:30.926Z,99152.22
2024-02-23T22:13:32.580Z,99150.69
2024-02-23T22:16:34.180Z,99158.94
2024-02-23T22:19:35.880Z,99148.47
2024-02-23T22:22:37.661Z,99144.41
2024-02-23T22:25:39.241Z,99141.31
2024-02-23T22:28:42.827Z,99151.06
2024-02-23T22:31:48.002Z,99134.63
2024-02-23T22:34:50.027Z,99135.31
2024-02-23T22:37:51.671Z,99138.22
2024-02-23T22:40:53.918Z,99141.22
2024-02-23T22:43:55.532Z,99124.59
2024-02-23T22:46:57.787Z,99137.09
2024-02-23T22:49:59.524Z,99125.28
2024-02-23T22:53:01.298Z,99134.38
2024-02-23T22:56:02.973Z,99140.50
2024-02-23T22:59:10.274Z,99129.63
2024-02-23T23:02:12.110Z,99145.78
2024-02-23T23:05:13.994Z,99138.69
2024-02-23T23:08:16.895Z,99144.94
2024-02-23T23:11:18.664Z,99143.28
2024-02-23T23:14:20.374Z,99140.16
2024-02-23T23:17:22.127Z,99136.53
2024-02-23T23:20:23.789Z,99140.00
2024-02-23T23:23:25.591Z,99134.22
2024-02-23T23:26:27.327Z,99124.84
2024-02-23T23:29:29.028Z,99131.47
2024-02-23T23:32:30.824Z,99133.41
2024-02-23T23:35:32.519Z,99139.50
2024-02-23T23:38:34.385Z,99136.59
2024-02-23T23:41:36.012Z,99127.19
2024-02-23T23:44:38.017Z,99143.97
2024-02-23T23:47:39.741Z,99139.69
2024-02-23T23:50:41.488Z,99142.34
2024-02-23T23:53:43.259Z,99143.50
2024-02-23T23:56:44.975Z,99136.72
2024-02-23T23:59:47.465Z,99139.38
